Mauterndorf, Austria
Current Conditions -  °F | °C
As of 12:50 AM on Saturday 25 Oct 2014 (Local Time) from LOWK Reporting Station
Overcast Overcast  
Wind Chill: 45°   Ceiling: 6000
Heat Index: 48°   Visibility: 6mi
Dew Point: 41°   Wind: 7mph
Humidity: 76%   Direction: 80°E
Pressure: 30.15"   Gusts: NA
Location:  47.13°N, 13.68°E
Report Text: LOWK 242350Z AUTO 08006KT 040V120 9999 OVC060 09/05 Q1021
Loading
Personal Weather Stations






























Interactive Weather Map
Tropical Storm Tracking
New forecast layout! Learn more

10-Day Weather Forecast

Advertisements
Track Severe Weather on mobile